createdAt,value
2019-02-20T00:00:28.130Z,53.20
2019-02-20T00:02:56.543Z,53.20
2019-02-20T00:05:24.949Z,53.70
2019-02-20T00:07:53.371Z,53.40
2019-02-20T00:10:21.809Z,53.60
2019-02-20T00:12:50.228Z,53.50
2019-02-20T00:15:18.640Z,53.70
2019-02-20T00:17:47.083Z,53.70
2019-02-20T00:20:15.493Z,53.50
2019-02-20T00:22:43.901Z,54.20
2019-02-20T00:25:12.309Z,53.50
2019-02-20T00:27:41.033Z,53.50
2019-02-20T00:30:10.484Z,53.50
2019-02-20T00:32:38.945Z,53.70
2019-02-20T00:35:07.506Z,53.80
2019-02-20T00:37:36.045Z,53.90
2019-02-20T00:40:07.773Z,54.10
2019-02-20T00:42:36.300Z,54.10
2019-02-20T00:45:25.741Z,54.80
2019-02-20T00:47:55.824Z,54.40
2019-02-20T00:50:25.877Z,54.50
2019-02-20T00:53:01.833Z,54.60
2019-02-20T00:55:30.237Z,54.80
2019-02-20T00:57:58.879Z,54.70
2019-02-20T01:00:27.280Z,54.90
2019-02-20T01:02:55.723Z,55.10
2019-02-20T01:05:24.141Z,55.00
2019-02-20T01:07:52.578Z,55.30
2019-02-20T01:10:21.005Z,55.40
2019-02-20T01:12:49.421Z,55.60
2019-02-20T01:15:17.911Z,55.10
2019-02-20T01:17:46.371Z,54.70
2019-02-20T01:20:14.775Z,54.90
2019-02-20T01:22:43.292Z,54.80
2019-02-20T01:25:11.720Z,55.10
2019-02-20T01:27:40.188Z,55.60
2019-02-20T01:30:11.142Z,56.40
2019-02-20T01:32:39.572Z,56.90
2019-02-20T01:35:08.673Z,57.20
2019-02-20T01:37:37.091Z,57.50
2019-02-20T01:40:07.616Z,57.70
2019-02-20T01:42:36.028Z,57.20
2019-02-20T01:45:06.225Z,57.20
2019-02-20T01:47:34.691Z,57.30
2019-02-20T01:50:03.162Z,58.50
2019-02-20T01:52:31.638Z,58.40
2019-02-20T01:55:00.152Z,58.10
2019-02-20T01:57:28.673Z,57.90
2019-02-20T01:59:57.193Z,58.10
2019-02-20T02:02:25.913Z,58.00
2019-02-20T02:04:54.366Z,57.70
2019-02-20T02:07:22.774Z,57.20
2019-02-20T02:09:51.243Z,56.70
2019-02-20T02:12:19.740Z,56.50
2019-02-20T02:14:48.172Z,56.40
2019-02-20T02:17:16.594Z,56.40
2019-02-20T02:19:45.035Z,56.40
2019-02-20T02:22:13.433Z,56.20
2019-02-20T02:24:41.995Z,56.30
2019-02-20T02:27:10.404Z,56.20
2019-02-20T02:29:38.826Z,55.00
2019-02-20T02:32:07.229Z,54.20
2019-02-20T02:34:35.655Z,53.20
2019-02-20T02:37:04.103Z,53.50
2019-02-20T02:39:32.534Z,53.50
2019-02-20T02:42:00.951Z,53.30
2019-02-20T02:44:29.703Z,53.10
2019-02-20T02:46:58.140Z,52.90
2019-02-20T02:49:26.561Z,52.80
2019-02-20T02:51:55.376Z,52.80
2019-02-20T02:54:23.817Z,52.80
2019-02-20T02:56:52.232Z,53.00
2019-02-20T02:59:20.678Z,53.00
2019-02-20T03:01:49.097Z,53.00
2019-02-20T03:04:17.533Z,53.30
2019-02-20T03:06:45.957Z,53.10
2019-02-20T03:09:14.726Z,53.00
2019-02-20T03:11:43.172Z,53.00
2019-02-20T03:14:11.602Z,53.30
2019-02-20T03:16:40.029Z,53.10
2019-02-20T03:19:08.446Z,53.10
2019-02-20T03:21:36.890Z,53.00
2019-02-20T03:24:05.459Z,52.90
2019-02-20T03:26:34.205Z,53.10
2019-02-20T03:29:02.618Z,52.90
2019-02-20T03:31:31.047Z,52.90
2019-02-20T03:33:59.450Z,52.90
2019-02-20T03:36:27.942Z,53.20
2019-02-20T03:38:56.471Z,53.00
2019-02-20T03:41:24.948Z,52.80
2019-02-20T03:43:53.366Z,52.70
2019-02-20T03:46:21.806Z,52.90
2019-02-20T03:48:50.219Z,53.00
2019-02-20T03:51:18.658Z,52.50
2019-02-20T03:53:51.607Z,52.00
2019-02-20T03:56:17.956Z,52.00
2019-02-20T03:58:46.386Z,51.90
2019-02-20T04:01:15.114Z,52.00
2019-02-20T04:03:43.586Z,52.00
2019-02-20T04:06:12.035Z,52.00
2019-02-20T04:08:40.482Z,52.00
2019-02-20T04:11:08.904Z,51.90
2019-02-20T04:13:37.336Z,51.90
2019-02-20T04:16:05.881Z,52.00
2019-02-20T04:18:34.297Z,52.00
2019-02-20T04:21:03.089Z,52.20
2019-02-20T04:23:32.979Z,52.30
2019-02-20T04:26:01.401Z,52.20
2019-02-20T04:28:29.836Z,52.10
2019-02-20T04:30:58.324Z,52.30
2019-02-20T04:33:26.791Z,52.40
2019-02-20T04:35:55.296Z,52.50
2019-02-20T04:38:23.716Z,52.20
2019-02-20T04:40:52.227Z,52.10
2019-02-20T04:43:20.653Z,52.20
2019-02-20T04:45:49.085Z,52.30
2019-02-20T04:48:17.508Z,52.40
2019-02-20T04:50:45.948Z,52.90
2019-02-20T04:53:14.367Z,53.10
2019-02-20T04:55:42.794Z,52.90
2019-02-20T04:58:19.140Z,53.00
2019-02-20T05:00:47.570Z,52.80
2019-02-20T05:03:15.993Z,53.10
2019-02-20T05:05:44.412Z,53.20
2019-02-20T05:08:12.918Z,53.50
2019-02-20T05:10:41.393Z,53.30
2019-02-20T05:13:09.834Z,53.70
2019-02-20T05:15:38.314Z,53.40
2019-02-20T05:18:06.738Z,53.70
2019-02-20T05:20:35.269Z,53.50
2019-02-20T05:23:03.675Z,53.70
2019-02-20T05:25:32.092Z,53.80
2019-02-20T05:28:00.821Z,54.20
2019-02-20T05:30:29.235Z,54.70
2019-02-20T05:32:57.673Z,54.70
2019-02-20T05:35:26.093Z,54.70
2019-02-20T05:37:54.555Z,54.30
2019-02-20T05:40:22.993Z,54.30
2019-02-20T05:42:51.421Z,54.10
2019-02-20T05:45:19.863Z,54.70
2019-02-20T05:47:48.359Z,54.80
2019-02-20T05:50:16.794Z,54.10
2019-02-20T05:52:45.290Z,54.20
2019-02-20T05:55:13.733Z,54.00
2019-02-20T05:57:42.175Z,54.00
2019-02-20T06:00:12.509Z,53.60
2019-02-20T06:02:40.979Z,54.40
2019-02-20T06:05:09.510Z,54.00
2019-02-20T06:07:38.009Z,53.80
2019-02-20T06:10:08.578Z,53.50
2019-02-20T06:12:56.349Z,53.40
2019-02-20T06:15:24.888Z,53.00
2019-02-20T06:17:53.334Z,52.80
2019-02-20T06:20:21.819Z,53.00
2019-02-20T06:22:50.244Z,53.00
2019-02-20T06:25:18.665Z,51.90
2019-02-20T06:27:47.184Z,51.80
2019-02-20T06:30:16.832Z,52.00
2019-02-20T06:32:45.270Z,52.00
2019-02-20T06:35:13.716Z,51.90
2019-02-20T06:37:42.263Z,52.00
2019-02-20T06:40:10.741Z,51.90
2019-02-20T06:42:39.145Z,51.90
2019-02-20T06:45:09.801Z,51.80
2019-02-20T06:47:38.267Z,51.80
2019-02-20T06:50:08.057Z,51.80
2019-02-20T06:52:36.477Z,51.50
2019-02-20T06:55:08.230Z,51.70
2019-02-20T06:57:36.662Z,51.70
2019-02-20T07:00:07.530Z,51.70
2019-02-20T07:02:35.946Z,51.70
2019-02-20T07:05:26.938Z,52.40
2019-02-20T07:08:01.666Z,51.00
2019-02-20T07:10:44.914Z,50.80
2019-02-20T07:13:13.955Z,50.30
2019-02-20T07:16:12.850Z,50.20
2019-02-20T07:18:50.182Z,50.40
2019-02-20T07:21:33.446Z,50.60
2019-02-20T07:24:05.008Z,50.30
2019-02-20T07:27:00.869Z,50.90
2019-02-20T07:30:06.142Z,50.60
2019-02-20T07:32:34.553Z,50.70
2019-02-20T07:35:03.046Z,50.60
2019-02-20T07:37:31.471Z,50.40
2019-02-20T07:39:59.881Z,49.60
2019-02-20T07:42:28.295Z,49.30
2019-02-20T07:44:56.802Z,49.40
2019-02-20T07:47:25.288Z,49.20
2019-02-20T07:49:53.765Z,48.80
2019-02-20T07:52:22.186Z,48.10
2019-02-20T07:54:50.630Z,48.50
2019-02-20T07:57:19.078Z,48.10
2019-02-20T07:59:47.521Z,48.20
2019-02-20T08:02:15.950Z,47.90
2019-02-20T08:04:44.413Z,48.00
2019-02-20T08:07:12.828Z,47.90
2019-02-20T08:09:41.232Z,48.10
2019-02-20T08:12:09.812Z,48.20
2019-02-20T08:14:38.219Z,48.40
2019-02-20T08:17:06.712Z,47.50
2019-02-20T08:19:35.470Z,48.10
2019-02-20T08:22:04.341Z,47.50
2019-02-20T08:24:33.055Z,47.60
2019-02-20T08:27:01.487Z,47.50
2019-02-20T08:29:29.893Z,48.00
2019-02-20T08:31:58.383Z,48.10
2019-02-20T08:34:26.854Z,49.10
2019-02-20T08:36:55.342Z,49.70
2019-02-20T08:39:23.814Z,49.80
2019-02-20T08:41:52.242Z,49.30
2019-02-20T08:44:20.671Z,49.10
2019-02-20T08:46:49.234Z,49.10
2019-02-20T08:49:17.669Z,49.20
2019-02-20T08:51:46.091Z,49.00
2019-02-20T08:54:14.863Z,48.70
2019-02-20T08:56:43.294Z,47.00
2019-02-20T08:59:11.750Z,47.00
2019-02-20T09:01:40.180Z,46.10
2019-02-20T09:04:08.632Z,46.60
2019-02-20T09:06:37.037Z,46.60
2019-02-20T09:09:06.302Z,46.20
2019-02-20T09:11:34.715Z,46.80
2019-02-20T09:14:03.167Z,46.50
2019-02-20T09:16:31.593Z,47.00
2019-02-20T09:19:00.035Z,46.60
2019-02-20T09:21:28.468Z,46.10
2019-02-20T09:23:56.873Z,45.70
2019-02-20T09:26:25.314Z,45.30
2019-02-20T09:28:53.733Z,45.70
2019-02-20T09:31:22.160Z,45.20
2019-02-20T09:33:50.631Z,45.50
2019-02-20T09:36:19.052Z,46.40
2019-02-20T09:38:47.499Z,45.80
2019-02-20T09:41:15.969Z,46.00
2019-02-20T09:43:45.325Z,45.40
2019-02-20T09:46:14.012Z,44.80
2019-02-20T09:48:42.722Z,44.50
2019-02-20T09:51:11.121Z,44.20
2019-02-20T09:53:39.822Z,44.00
2019-02-20T09:56:09.265Z,43.00
2019-02-20T09:58:37.717Z,42.90
2019-02-20T10:01:06.176Z,41.60
2019-02-20T10:03:34.673Z,41.60
2019-02-20T10:06:03.087Z,41.10
2019-02-20T10:08:31.893Z,39.90
2019-02-20T10:11:00.352Z,39.80
2019-02-20T10:13:29.711Z,39.80
2019-02-20T10:15:58.134Z,39.80
2019-02-20T10:18:26.533Z,38.60
2019-02-20T10:20:54.953Z,38.50
2019-02-20T10:23:23.451Z,39.00
2019-02-20T10:26:00.323Z,39.60
2019-02-20T10:28:22.037Z,39.30
2019-02-20T10:30:50.452Z,38.50
2019-02-20T10:33:18.865Z,38.60
2019-02-20T10:35:47.670Z,38.20
2019-02-20T10:38:16.161Z,37.70
2019-02-20T10:40:44.581Z,37.20
2019-02-20T10:43:13.029Z,35.80
2019-02-20T10:45:41.498Z,35.80
2019-02-20T10:48:10.124Z,35.20
2019-02-20T10:50:38.608Z,34.50
2019-02-20T10:53:07.014Z,33.80
2019-02-20T10:55:35.500Z,33.50
2019-02-20T10:58:04.106Z,33.10
2019-02-20T11:00:33.013Z,33.30
2019-02-20T11:03:01.446Z,32.60
2019-02-20T11:05:29.856Z,32.80
2019-02-20T11:07:58.318Z,33.70
2019-02-20T11:10:26.794Z,33.00
2019-02-20T11:12:55.240Z,32.90
2019-02-20T11:15:23.681Z,33.30
2019-02-20T11:17:52.101Z,33.60
2019-02-20T11:20:20.529Z,33.70
2019-02-20T11:22:49.029Z,33.80
2019-02-20T11:25:17.444Z,34.00
2019-02-20T11:27:45.885Z,34.50
2019-02-20T11:30:17.127Z,34.20
2019-02-20T11:32:45.648Z,34.70
2019-02-20T11:35:14.099Z,34.90
2019-02-20T11:37:42.532Z,35.20
2019-02-20T11:40:11.020Z,35.40
2019-02-20T11:42:39.430Z,35.70
2019-02-20T11:45:10.785Z,36.00
2019-02-20T11:47:39.183Z,35.60
2019-02-20T11:50:09.337Z,35.80
2019-02-20T11:52:38.586Z,35.40
2019-02-20T11:55:09.666Z,35.10
2019-02-20T11:57:38.093Z,35.00
2019-02-20T12:00:10.325Z,34.70
2019-02-20T12:02:38.724Z,35.30
2019-02-20T12:05:07.551Z,34.90
2019-02-20T12:07:35.973Z,35.50
2019-02-20T12:10:09.625Z,35.90
2019-02-20T12:12:38.053Z,36.50
2019-02-20T12:15:07.813Z,36.80
2019-02-20T12:17:36.301Z,36.80
2019-02-20T12:20:07.553Z,36.60
2019-02-20T12:22:35.973Z,36.90
2019-02-20T12:25:06.248Z,36.90
2019-02-20T12:27:34.948Z,37.00
2019-02-20T12:30:04.515Z,36.80
2019-02-20T12:32:32.919Z,36.50
2019-02-20T12:35:01.385Z,36.60
2019-02-20T12:37:29.898Z,36.60
2019-02-20T12:39:58.305Z,36.80
2019-02-20T12:42:26.993Z,37.30
2019-02-20T12:44:55.467Z,36.80
2019-02-20T12:47:24.143Z,36.90
2019-02-20T12:49:52.631Z,37.20
2019-02-20T12:52:21.057Z,37.20
2019-02-20T12:54:49.491Z,37.20
2019-02-20T12:57:17.968Z,36.60
2019-02-20T12:59:46.433Z,36.40
2019-02-20T13:02:14.856Z,36.40
2019-02-20T13:04:43.304Z,37.00
2019-02-20T13:07:11.793Z,37.40
2019-02-20T13:09:40.230Z,37.60
2019-02-20T13:12:08.767Z,37.50
2019-02-20T13:14:37.166Z,37.20
2019-02-20T13:17:05.604Z,36.90
2019-02-20T13:19:34.020Z,36.80
2019-02-20T13:22:02.496Z,36.90
2019-02-20T13:24:30.890Z,37.00
2019-02-20T13:26:59.330Z,37.00
2019-02-20T13:29:27.769Z,37.10
2019-02-20T13:31:56.210Z,37.00
2019-02-20T13:34:24.713Z,37.30
2019-02-20T13:36:53.156Z,37.00
2019-02-20T13:39:21.569Z,37.00
2019-02-20T13:41:50.068Z,37.50
2019-02-20T13:44:18.536Z,37.20
2019-02-20T13:46:47.042Z,37.50
2019-02-20T13:49:15.860Z,37.70
2019-02-20T13:51:44.412Z,37.90
2019-02-20T13:54:12.890Z,37.90
2019-02-20T13:56:41.366Z,38.00
2019-02-20T13:59:09.905Z,37.70
2019-02-20T14:01:39.322Z,37.60
2019-02-20T14:04:07.802Z,37.40
2019-02-20T14:06:36.237Z,37.20
2019-02-20T14:09:05.920Z,37.20
2019-02-20T14:11:34.686Z,37.30
2019-02-20T14:14:03.169Z,37.20
2019-02-20T14:16:31.646Z,38.00
2019-02-20T14:19:00.061Z,38.10
2019-02-20T14:21:29.226Z,38.20
2019-02-20T14:23:57.981Z,38.00
2019-02-20T14:26:26.432Z,38.20
2019-02-20T14:28:54.966Z,38.10
2019-02-20T14:31:23.771Z,38.20
2019-02-20T14:33:52.169Z,37.90
2019-02-20T14:36:20.625Z,38.10
2019-02-20T14:38:49.302Z,38.10
2019-02-20T14:41:17.787Z,38.00
2019-02-20T14:43:46.288Z,37.90
2019-02-20T14:46:14.789Z,37.70
2019-02-20T14:48:43.229Z,37.80
2019-02-20T14:51:11.693Z,37.70
2019-02-20T14:53:40.286Z,37.40
2019-02-20T14:56:08.855Z,37.60
2019-02-20T14:58:37.257Z,38.10
2019-02-20T15:01:06.207Z,38.40
2019-02-20T15:03:34.785Z,38.40
2019-02-20T15:06:03.252Z,38.80
2019-02-20T15:08:31.682Z,38.50
2019-02-20T15:11:00.216Z,38.70
2019-02-20T15:13:28.788Z,38.80
2019-02-20T15:15:57.619Z,39.10
2019-02-20T15:18:26.137Z,39.20
2019-02-20T15:20:54.601Z,39.00
2019-02-20T15:23:23.064Z,38.80
2019-02-20T15:25:51.566Z,38.50
2019-02-20T15:28:20.384Z,38.30
2019-02-20T15:30:48.877Z,38.40
2019-02-20T15:33:17.378Z,37.90
2019-02-20T15:35:45.874Z,38.10
2019-02-20T15:38:14.416Z,38.10
2019-02-20T15:40:43.669Z,38.20
2019-02-20T15:43:12.211Z,37.60
2019-02-20T15:45:40.817Z,37.40
2019-02-20T15:48:09.411Z,37.40
2019-02-20T15:50:37.824Z,37.10
2019-02-20T15:53:07.022Z,37.30
2019-02-20T15:55:35.575Z,37.50
2019-02-20T15:58:04.203Z,37.90
2019-02-20T16:00:32.666Z,38.00
2019-02-20T16:03:01.234Z,37.90
2019-02-20T16:05:29.646Z,38.20
2019-02-20T16:07:58.137Z,38.30
2019-02-20T16:10:26.556Z,38.00
2019-02-20T16:12:55.048Z,38.20
2019-02-20T16:15:24.284Z,38.50
2019-02-20T16:17:53.221Z,38.70
2019-02-20T16:20:21.742Z,38.80
2019-02-20T16:22:50.313Z,39.00
2019-02-20T16:25:18.745Z,39.10
2019-02-20T16:27:47.873Z,39.20
2019-02-20T16:30:16.681Z,39.30
2019-02-20T16:32:45.284Z,39.50
2019-02-20T16:35:14.057Z,39.60
2019-02-20T16:37:42.568Z,40.00
2019-02-20T16:40:13.428Z,39.90
2019-02-20T16:42:42.039Z,40.10
2019-02-20T16:45:21.986Z,39.90
2019-02-20T16:47:51.508Z,40.10
2019-02-20T16:50:20.290Z,40.20
2019-02-20T16:52:49.072Z,40.30
2019-02-20T16:55:22.546Z,40.60
2019-02-20T16:57:56.207Z,40.80
2019-02-20T17:00:20.664Z,40.90
2019-02-20T17:02:50.080Z,40.90
2019-02-20T17:05:18.484Z,41.20
2019-02-20T17:07:47.098Z,41.30
2019-02-20T17:10:16.230Z,41.40
2019-02-20T17:12:44.730Z,41.40
2019-02-20T17:15:17.504Z,41.60
2019-02-20T17:17:46.061Z,41.60
2019-02-20T17:20:17.873Z,41.60
2019-02-20T17:22:46.739Z,41.70
2019-02-20T17:25:15.729Z,41.80
2019-02-20T17:27:44.566Z,41.90
2019-02-20T17:30:17.351Z,41.90
2019-02-20T17:32:46.306Z,42.50
2019-02-20T17:35:17.210Z,42.60
2019-02-20T17:37:45.873Z,42.60
2019-02-20T17:40:15.499Z,42.60
2019-02-20T17:42:43.926Z,43.00
2019-02-20T17:45:16.667Z,43.00
2019-02-20T17:47:45.657Z,43.00
2019-02-20T17:50:16.627Z,43.20
2019-02-20T17:52:45.144Z,43.40
2019-02-20T17:55:13.893Z,43.00
2019-02-20T17:57:42.339Z,43.60
2019-02-20T18:00:13.029Z,43.70
2019-02-20T18:02:41.724Z,43.90
2019-02-20T18:05:10.296Z,44.30
2019-02-20T18:07:38.724Z,44.70
2019-02-20T18:10:09.663Z,44.80
2019-02-20T18:12:38.117Z,44.90
2019-02-20T18:15:11.374Z,45.00
2019-02-20T18:17:39.783Z,44.90
2019-02-20T18:20:09.631Z,44.80
2019-02-20T18:22:38.059Z,45.20
2019-02-20T18:25:09.914Z,45.50
2019-02-20T18:27:38.649Z,45.60
2019-02-20T18:30:12.150Z,46.30
2019-02-20T18:32:40.607Z,45.80
2019-02-20T18:35:14.937Z,45.80
2019-02-20T18:37:43.503Z,46.00
2019-02-20T18:40:14.644Z,46.10
2019-02-20T18:42:43.077Z,45.90
2019-02-20T18:45:14.215Z,46.00
2019-02-20T18:47:42.637Z,45.80
2019-02-20T18:50:15.157Z,46.10
2019-02-20T18:52:43.799Z,46.10
2019-02-20T18:55:13.783Z,46.20
2019-02-20T18:57:42.269Z,46.30
2019-02-20T19:00:20.774Z,46.50
2019-02-20T19:02:49.211Z,46.50
2019-02-20T19:05:18.854Z,46.50
2019-02-20T19:07:47.768Z,46.80
2019-02-20T19:10:36.181Z,47.10
2019-02-20T19:13:07.744Z,47.10
2019-02-20T19:15:40.742Z,47.30
2019-02-20T19:18:30.208Z,47.40
2019-02-20T19:21:07.625Z,48.60
2019-02-20T19:24:01.944Z,48.70
2019-02-20T19:26:48.471Z,49.00
2019-02-20T19:29:35.150Z,48.90
2019-02-20T19:32:27.465Z,49.30
2019-02-20T19:35:13.857Z,50.00
2019-02-20T19:37:45.411Z,49.90
2019-02-20T19:40:20.817Z,50.40
2019-02-20T19:42:55.363Z,50.40
2019-02-20T19:45:32.853Z,50.10
2019-02-20T19:48:38.136Z,49.50
2019-02-20T19:51:18.142Z,48.80
2019-02-20T19:54:09.230Z,50.00
2019-02-20T19:56:55.377Z,49.60
2019-02-20T19:59:39.347Z,49.60
2019-02-20T20:02:38.029Z,49.40
2019-02-20T20:05:18.270Z,48.90
2019-02-20T20:07:55.500Z,49.60
2019-02-20T20:10:38.697Z,49.10
2019-02-20T20:13:36.972Z,49.00
2019-02-20T20:16:26.530Z,49.80
2019-02-20T20:19:03.742Z,49.60
2019-02-20T20:21:35.265Z,50.00
2019-02-20T20:24:10.447Z,50.20
2019-02-20T20:27:01.717Z,50.10
2019-02-20T20:29:35.968Z,49.80
2019-02-20T20:32:37.527Z,50.10
2019-02-20T20:35:09.370Z,50.10
2019-02-20T20:37:45.910Z,50.70
2019-02-20T20:40:16.552Z,50.50
2019-02-20T20:43:06.650Z,50.40
2019-02-20T20:46:00.850Z,50.90
2019-02-20T20:48:41.357Z,51.00
2019-02-20T20:51:30.967Z,51.20
2019-02-20T20:54:07.557Z,52.00
2019-02-20T20:56:57.265Z,52.10
2019-02-20T20:59:30.184Z,52.70
2019-02-20T21:02:04.339Z,52.70
2019-02-20T21:04:38.391Z,52.80
2019-02-20T21:07:30.570Z,52.60
2019-02-20T21:10:10.825Z,52.60
2019-02-20T21:13:14.028Z,52.80
2019-02-20T21:16:03.623Z,52.90
2019-02-20T21:18:49.446Z,53.10
2019-02-20T21:21:26.676Z,53.00
2019-02-20T21:24:04.088Z,53.40
2019-02-20T21:26:56.749Z,53.50
2019-02-20T21:29:31.206Z,53.00
2019-02-20T21:32:08.613Z,53.20
2019-02-20T21:35:11.842Z,53.30
2019-02-20T21:37:46.055Z,53.40
2019-02-20T21:40:37.049Z,54.10
2019-02-20T21:43:38.704Z,54.20
2019-02-20T21:46:15.510Z,54.50
2019-02-20T21:49:05.147Z,54.80
2019-02-20T21:51:48.670Z,54.80
2019-02-20T21:54:22.706Z,54.90
2019-02-20T21:56:56.874Z,55.00
2019-02-20T21:59:39.386Z,55.00
2019-02-20T22:02:22.554Z,55.00
2019-02-20T22:04:56.889Z,55.50
2019-02-20T22:07:44.878Z,56.50
2019-02-20T22:10:25.411Z,56.60
2019-02-20T22:13:27.501Z,56.50
2019-02-20T22:16:13.958Z,56.50
2019-02-20T22:18:48.279Z,56.60
2019-02-20T22:21:54.588Z,56.60
2019-02-20T22:24:31.977Z,56.50
2019-02-20T22:27:15.449Z,56.50
2019-02-20T22:30:09.405Z,56.50
2019-02-20T22:32:57.425Z,56.60
2019-02-20T22:35:45.393Z,56.60
2019-02-20T22:38:44.257Z,56.60
2019-02-20T22:41:39.765Z,56.90
2019-02-20T22:44:33.857Z,57.10
2019-02-20T22:47:10.444Z,57.70
2019-02-20T22:50:01.976Z,58.90
2019-02-20T22:52:39.152Z,59.80
2019-02-20T22:55:38.259Z,60.30
2019-02-20T22:58:10.523Z,60.80
2019-02-20T23:01:10.654Z,61.00
2019-02-20T23:03:59.988Z,61.30
2019-02-20T23:06:49.404Z,61.40
2019-02-20T23:09:20.969Z,61.20
2019-02-20T23:12:08.957Z,61.20
2019-02-20T23:14:54.991Z,61.00
2019-02-20T23:17:23.756Z,60.80
2019-02-20T23:19:52.187Z,60.60
2019-02-20T23:22:20.594Z,60.30
2019-02-20T23:24:49.046Z,59.70
2019-02-20T23:27:17.481Z,59.30
2019-02-20T23:29:46.009Z,59.10
2019-02-20T23:32:14.469Z,58.70
2019-02-20T23:34:43.001Z,58.30
2019-02-20T23:37:11.405Z,58.10
2019-02-20T23:39:39.855Z,57.90
2019-02-20T23:42:08.262Z,57.90
2019-02-20T23:44:36.745Z,57.60
2019-02-20T23:47:05.205Z,57.80
2019-02-20T23:49:33.634Z,57.90
2019-02-20T23:52:02.066Z,57.80
2019-02-20T23:54:30.520Z,57.80
2019-02-20T23:56:58.948Z,58.10
2019-02-20T23:59:27.771Z,58.00
